Time;durP1;ratioP1;P1;durP2;ratioP2;P2;SDS_P1;SDS_P2;PMS_P1;PMS_P2;Temp;Humidity;BMP_temperature;BMP_pressure;BME280_temperature;BME280_humidity;BME280_pressure;Samples;Min_cycle;Max_cycle;Signal;HPM_P1;HPM_P2
2022/09/08 00:00:00;;;;;;;13.73;8.13;;;;;;;14.38;69.03;99754.34;5031532;28;20030;-73
2022/09/08 00:02:25;;;;;;;8.85;7.95;;;;;;;14.31;69.61;99758.59;5031339;28;20462;-73
2022/09/08 00:04:51;;;;;;;16.52;8.43;;;;;;;14.48;70.19;99758.66;5030114;28;20036;-72
2022/09/08 00:07:18;;;;;;;16.15;8.75;;;;;;;14.36;70.99;99751.06;5029016;28;20025;-73
2022/09/08 00:09:44;;;;;;;9.30;7.70;;;;;;;14.43;71.22;99752.09;5026526;28;20033;-73
2022/09/08 00:12:12;;;;;;;13.15;8.77;;;;;;;14.45;70.74;99752.56;5030021;28;20053;-73
2022/09/08 00:14:37;;;;;;;11.02;8.10;;;;;;;14.32;71.14;99739.69;5030076;28;20530;-73
2022/09/08 00:17:03;;;;;;;15.07;8.65;;;;;;;14.32;71.52;99748.13;5029910;28;20064;-73
2022/09/08 00:19:29;;;;;;;16.70;8.65;;;;;;;14.43;71.99;99763.34;5029038;28;20033;-73
2022/09/08 00:21:54;;;;;;;11.80;8.60;;;;;;;14.54;71.49;99760.06;5031191;28;20025;-73
2022/09/08 00:24:20;;;;;;;9.73;8.23;;;;;;;14.50;71.60;99770.41;5031104;28;20522;-74
2022/09/08 00:26:45;;;;;;;8.90;8.02;;;;;;;14.34;72.00;99757.03;5029871;28;20029;-73
2022/09/08 00:29:11;;;;;;;12.57;9.05;;;;;;;14.26;72.82;99769.25;5031014;28;20044;-73
2022/09/08 00:31:38;;;;;;;23.23;8.82;;;;;;;13.97;73.97;99768.31;5029094;28;20079;-73
2022/09/08 00:34:04;;;;;;;11.05;9.23;;;;;;;13.93;74.08;99773.00;5030981;28;20049;-72
2022/09/08 00:36:30;;;;;;;23.83;9.65;;;;;;;13.81;74.34;99774.63;5029877;28;20033;-73
2022/09/08 00:39:00;;;;;;;12.95;8.73;;;;;;;13.87;73.87;99778.84;5032368;28;20444;-73
2022/09/08 00:41:27;;;;;;;13.38;9.38;;;;;;;13.70;74.60;99781.88;5017287;28;20603;-73
2022/09/08 00:44:01;;;;;;;16.13;9.90;;;;;;;13.60;75.29;99788.78;5034938;28;20239;-73
2022/09/08 00:46:39;;;;;;;8.63;7.60;;;;;;;13.68;74.87;99784.22;5034050;28;20110;-73
2022/09/08 00:49:21;;;;;;;15.05;9.43;;;;;;;13.70;74.73;99787.50;5033523;28;20475;-73
2022/09/08 00:51:51;;;;;;;10.75;8.25;;;;;;;13.73;74.46;99792.41;5017181;28;20116;-73
2022/09/08 00:54:19;;;;;;;12.87;9.10;;;;;;;13.73;74.29;99779.19;5034830;28;20030;-73
2022/09/08 00:56:46;;;;;;;10.95;9.00;;;;;;;13.70;74.59;99781.88;5033559;28;20478;-73
2022/09/08 00:59:15;;;;;;;13.38;9.35;;;;;;;13.81;74.38;99783.06;5017076;28;20025;-73
2022/09/08 01:01:41;;;;;;;13.88;9.60;;;;;;;13.85;73.98;99772.75;5033700;28;20033;-73
2022/09/08 01:04:08;;;;;;;13.27;8.93;;;;;;;13.92;73.83;99786.22;5033304;28;20429;-72
2022/09/08 01:12:45;;;;;;;16.63;9.55;;;;;;;13.80;74.95;99789.84;5034869;28;20436;-74
2022/09/08 01:15:15;;;;;;;14.07;9.15;;;;;;;13.62;75.67;99783.63;5033176;28;20040;-73
2022/09/08 01:17:41;;;;;;;10.32;9.10;;;;;;;13.55;76.17;99783.34;5016685;28;20030;-73
2022/09/08 01:20:08;;;;;;;10.80;9.35;;;;;;;13.60;76.37;99778.34;5034318;28;20108;-73
2022/09/08 01:22:53;;;;;;;12.57;8.52;;;;;;;13.52;76.51;99790.50;5016470;28;20034;-73
2022/09/08 01:26:01;;;;;;;11.18;9.55;;;;;;;13.48;76.59;99773.53;5003316;28;20044;-73
2022/09/08 01:28:49;;;;;;;13.13;9.27;;;;;;;13.53;76.86;99766.84;4987572;28;20100;-73
2022/09/08 01:31:16;;;;;;;13.60;8.98;;;;;;;13.62;75.93;99770.38;5031607;28;20497;-73
2022/09/08 01:33:42;;;;;;;11.65;9.10;;;;;;;13.47;76.65;99773.84;5034053;28;20056;-73
2022/09/08 01:36:13;;;;;;;9.05;8.13;;;;;;;13.38;77.04;99775.91;5034140;28;20053;-73
2022/09/08 01:38:38;;;;;;;10.40;8.18;;;;;;;13.28;77.44;99765.94;5033988;28;20033;-73
2022/09/08 01:41:05;;;;;;;10.98;8.98;;;;;;;13.27;77.62;99759.50;5033952;28;20027;-73
2022/09/08 01:43:30;;;;;;;12.70;9.23;;;;;;;13.24;77.82;99754.56;5033651;28;20045;-72
2022/09/08 01:45:56;;;;;;;11.90;9.27;;;;;;;13.46;76.95;99752.53;5032950;28;20029;-73
2022/09/08 01:48:22;;;;;;;10.95;9.07;;;;;;;13.56;76.76;99749.28;5033846;28;20110;-73
2022/09/08 01:50:48;;;;;;;11.38;8.85;;;;;;;13.78;75.86;99747.22;5031423;28;20454;-73
2022/09/08 01:53:14;;;;;;;11.38;8.82;;;;;;;13.61;76.59;99745.44;5033755;28;20025;-73
2022/09/08 01:55:40;;;;;;;11.98;9.18;;;;;;;13.53;77.06;99752.81;5032363;28;20415;-73
2022/09/08 01:58:05;;;;;;;14.30;9.00;;;;;;;13.40;77.71;99751.13;5033795;28;20018;-73
2022/09/08 02:00:31;;;;;;;18.05;9.70;;;;;;;13.42;78.24;99760.00;5015182;28;20510;-73
2022/09/08 02:02:56;;;;;;;12.80;9.65;;;;;;;13.37;78.24;99763.03;5015704;28;20061;-73
2022/09/08 02:05:22;;;;;;;13.50;9.75;;;;;;;13.42;78.27;99760.00;5033606;28;20032;-73
2022/09/08 02:07:47;;;;;;;10.93;9.18;;;;;;;13.38;78.00;99756.22;5014757;28;20025;-73
2022/09/08 02:10:13;;;;;;;15.95;10.35;;;;;;;13.28;78.53;99758.34;5032413;28;20021;-73
2022/09/08 02:12:39;;;;;;;10.77;9.70;;;;;;;13.20;78.53;99762.03;5032165;28;20029;-73
2022/09/08 02:15:06;;;;;;;10.63;9.38;;;;;;;13.38;77.67;99753.44;5032259;28;20162;-73
2022/09/08 02:17:31;;;;;;;11.70;9.18;;;;;;;13.49;77.21;99754.66;5032225;28;20025;-73
2022/09/08 02:19:57;;;;;;;21.25;10.50;;;;;;;13.73;75.87;99739.00;5032955;28;20491;-73
2022/09/08 02:22:22;;;;;;;13.57;8.98;;;;;;;13.85;75.22;99739.00;5033341;28;20057;-73
2022/09/08 02:24:48;;;;;;;12.15;8.23;;;;;;;14.04;73.87;99729.97;5032412;28;20021;-73
2022/09/08 02:27:13;;;;;;;11.43;8.80;;;;;;;13.93;74.63;99733.63;5033079;28;20013;-73
2022/09/08 02:29:39;;;;;;;9.85;8.68;;;;;;;13.37;76.91;99732.13;5030599;28;20119;-72
2022/09/08 02:32:05;;;;;;;12.32;9.43;;;;;;;13.28;77.26;99730.25;5031804;28;20036;-73
2022/09/08 02:34:30;;;;;;;11.88;8.43;;;;;;;13.30;77.37;99741.94;5015111;28;20061;-73
2022/09/08 02:36:56;;;;;;;13.10;9.57;;;;;;;13.08;78.72;99745.16;5015451;28;20021;-72
2022/09/08 02:39:22;;;;;;;16.88;9.60;;;;;;;13.08;78.64;99754.38;5032882;28;20040;-73
2022/09/08 02:41:47;;;;;;;14.35;9.60;;;;;;;12.95;79.32;99747.91;5032589;28;20052;-73
2022/09/08 02:44:14;;;;;;;16.45;9.88;;;;;;;13.02;78.60;99753.78;5014264;28;20415;-72
2022/09/08 02:46:40;;;;;;;13.27;9.63;;;;;;;12.78;79.37;99749.69;5032795;28;20564;-73
2022/09/08 02:49:08;;;;;;;12.68;10.27;;;;;;;12.63;80.29;99762.38;5032688;28;20121;-73
2022/09/08 02:51:33;;;;;;;11.63;9.27;;;;;;;12.66;80.41;99758.03;5032593;28;20021;-73
2022/09/08 02:53:59;;;;;;;11.75;9.05;;;;;;;12.63;80.39;99759.56;5032665;28;20499;-73
2022/09/08 02:56:25;;;;;;;22.98;10.43;;;;;;;12.72;79.94;99762.31;5032594;28;20032;-73
2022/09/08 02:58:50;;;;;;;14.07;10.27;;;;;;;12.66;80.20;99766.47;5030249;28;20068;-73
2022/09/08 03:01:16;;;;;;;22.70;10.68;;;;;;;12.51;80.57;99756.69;5029909;28;20090;-73
2022/09/08 03:03:42;;;;;;;16.27;9.85;;;;;;;12.52;80.72;99754.69;5032155;28;20069;-72
2022/09/08 03:06:08;;;;;;;13.48;9.93;;;;;;;12.55;80.65;99751.19;5014272;28;20112;-73
2022/09/08 03:08:34;;;;;;;21.95;11.82;;;;;;;12.62;80.00;99746.72;5032402;28;20104;-73
2022/09/08 03:11:01;;;;;;;19.13;10.23;;;;;;;12.78;79.11;99748.88;5031785;28;20112;-73
2022/09/08 03:13:26;;;;;;;14.27;9.23;;;;;;;12.74;79.27;99750.75;5012432;28;20033;-73
2022/09/08 03:15:52;;;;;;;15.05;10.23;;;;;;;12.76;79.03;99751.22;5030572;28;20033;-73
2022/09/08 03:18:17;;;;;;;11.88;9.48;;;;;;;12.71;79.45;99759.81;5032020;28;20029;-72
2022/09/08 03:20:44;;;;;;;10.60;9.40;;;;;;;12.80;78.72;99749.34;5031005;28;20037;-73
2022/09/08 03:23:18;;;;;;;13.15;9.02;;;;;;;12.85;78.82;99751.13;5032124;28;20389;-72
2022/09/08 03:25:45;;;;;;;10.13;8.40;;;;;;;12.96;78.50;99760.78;5014150;28;20033;-73
2022/09/08 03:28:18;;;;;;;16.17;9.10;;;;;;;12.97;78.06;99765.22;5013645;28;20101;-73
2022/09/08 03:30:44;;;;;;;14.70;8.65;;;;;;;13.19;77.53;99766.03;5009428;28;20461;-73
2022/09/08 03:33:09;;;;;;;13.63;9.45;;;;;;;13.29;76.87;99761.94;5031536;28;20073;-73
2022/09/08 03:35:35;;;;;;;11.60;8.77;;;;;;;13.41;76.06;99764.78;5013443;28;20026;-73
2022/09/08 03:38:00;;;;;;;11.10;8.85;;;;;;;13.51;75.98;99763.56;5028445;28;20052;-73
2022/09/08 03:40:26;;;;;;;14.57;8.40;;;;;;;13.73;74.62;99753.88;5031012;28;20040;-72
2022/09/08 03:42:52;;;;;;;12.93;8.55;;;;;;;13.70;75.03;99760.22;5013392;28;20076;-73
2022/09/08 03:45:18;;;;;;;14.57;9.77;;;;;;;13.30;76.68;99761.63;5030359;28;20029;-72
2022/09/08 03:47:44;;;;;;;13.55;8.65;;;;;;;13.27;77.02;99762.31;5030711;28;20066;-72
2022/09/08 03:50:11;;;;;;;11.25;8.95;;;;;;;13.16;77.53;99763.91;5012935;28;20059;-73
2022/09/08 03:52:37;;;;;;;24.42;9.52;;;;;;;13.16;77.61;99759.09;5029185;28;20037;-73
2022/09/08 03:55:03;;;;;;;14.60;9.18;;;;;;;13.04;78.03;99778.72;5011956;28;20565;-73
2022/09/08 03:57:29;;;;;;;15.25;10.13;;;;;;;12.84;79.05;99769.16;5012858;28;20496;-72
2022/09/08 03:59:56;;;;;;;12.32;9.25;;;;;;;12.90;79.12;99767.75;5010038;28;20030;-72
2022/09/08 04:02:23;;;;;;;14.00;9.10;;;;;;;13.02;78.62;99762.19;5029365;28;20029;-72
2022/09/08 04:04:50;;;;;;;12.43;9.30;;;;;;;13.09;77.84;99767.25;5028929;28;20075;-72
2022/09/08 04:07:18;;;;;;;28.27;11.00;;;;;;;12.82;79.08;99772.28;5025556;28;20029;-72
2022/09/08 04:09:44;;;;;;;11.05;9.25;;;;;;;12.88;78.78;99764.47;5027537;28;20045;-72
2022/09/08 04:12:10;;;;;;;16.73;10.55;;;;;;;12.91;78.97;99766.59;5027150;28;20033;-72
2022/09/08 04:14:37;;;;;;;17.45;8.55;;;;;;;13.03;78.29;99768.66;5026316;28;20029;-71
2022/09/08 04:17:02;;;;;;;26.17;10.35;;;;;;;12.88;78.90;99770.09;5005290;28;20084;-71
2022/09/08 04:19:28;;;;;;;11.88;9.10;;;;;;;12.82;79.37;99771.47;5021913;28;20124;-72
2022/09/08 04:21:54;;;;;;;13.82;9.43;;;;;;;12.75;79.80;99761.63;5027052;28;20030;-74
2022/09/08 04:24:19;;;;;;;12.18;9.02;;;;;;;12.87;79.25;99772.09;5026465;28;20056;-71
2022/09/08 04:26:46;;;;;;;27.15;10.88;;;;;;;13.15;77.91;99762.25;5006924;28;20033;-77
2022/09/08 04:29:11;;;;;;;19.17;10.48;;;;;;;12.98;78.24;99769.69;5009245;28;20033;-79
2022/09/08 04:31:37;;;;;;;15.02;9.77;;;;;;;12.90;78.48;99779.00;5027726;28;20030;-73
2022/09/08 04:34:03;;;;;;;15.38;9.13;;;;;;;12.82;78.73;99761.06;5027715;28;20666;-73
2022/09/08 04:36:30;;;;;;;17.48;9.40;;;;;;;12.95;78.79;99780.75;5013305;28;20029;-73
2022/09/08 04:38:58;;;;;;;20.95;8.98;;;;;;;12.98;78.86;99780.91;5031248;28;20030;-72
2022/09/08 04:41:24;;;;;;;16.13;10.05;;;;;;;12.98;78.82;99786.53;5029999;28;20199;-73
2022/09/08 04:43:50;;;;;;;14.63;8.75;;;;;;;13.06;78.54;99782.81;5030193;28;20504;-74
2022/09/08 04:46:17;;;;;;;14.07;9.85;;;;;;;13.25;77.85;99783.47;5030885;28;20101;-75
2022/09/08 04:48:44;;;;;;;11.30;9.15;;;;;;;13.22;77.55;99785.00;5031059;28;20597;-74
2022/09/08 04:51:12;;;;;;;11.02;9.07;;;;;;;13.30;77.85;99786.91;5030759;28;20408;-77
2022/09/08 04:53:37;;;;;;;15.13;9.15;;;;;;;13.23;78.34;99786.63;5031097;28;20022;-78
2022/09/08 04:56:05;;;;;;;12.60;9.32;;;;;;;13.25;78.22;99781.47;5029884;28;20404;-76
2022/09/08 04:58:36;;;;;;;19.52;9.20;;;;;;;13.55;77.55;99781.38;5030834;28;20025;-71
2022/09/08 05:01:12;;;;;;;12.90;9.40;;;;;;;13.58;77.15;99789.09;5030818;28;20018;-71
2022/09/08 05:03:38;;;;;;;11.75;9.13;;;;;;;13.80;76.74;99789.03;5029500;28;20032;-69
2022/09/08 05:06:09;;;;;;;15.05;9.75;;;;;;;13.91;75.99;99773.34;5030851;28;20021;-75
2022/09/08 05:08:35;;;;;;;18.27;7.70;;;;;;;14.07;76.00;99778.28;5030800;28;20508;-77
2022/09/08 05:11:01;;;;;;;11.68;7.15;;;;;;;14.43;74.65;99777.44;5029692;28;20029;-76
2022/09/08 05:13:27;;;;;;;14.27;8.27;;;;;;;14.71;73.86;99778.69;5030682;28;20021;-73
2022/09/08 05:16:01;;;;;;;23.83;8.70;;;;;;;14.59;74.26;99783.16;5029409;28;20126;-75
2022/09/08 05:18:26;;;;;;;17.00;8.27;;;;;;;14.80;73.39;99778.56;5030611;28;20032;-73
2022/09/08 05:20:55;;;;;;;17.27;8.18;;;;;;;14.97;73.09;99778.28;5031055;28;20088;-74
2022/09/08 05:23:20;;;;;;;17.17;9.27;;;;;;;15.10;73.13;99775.41;5029722;28;20029;-77
2022/09/08 05:25:54;;;;;;;25.65;11.30;;;;;;;15.31;72.61;99783.66;5030620;28;20100;-75
2022/09/08 05:28:20;;;;;;;17.38;9.00;;;;;;;15.26;71.20;99781.91;5032982;28;20052;-75
2022/09/08 05:30:45;;;;;;;11.55;6.95;;;;;;;15.42;70.57;99773.50;5034203;28;20516;-73
2022/09/08 05:33:10;;;;;;;17.23;8.25;;;;;;;15.37;70.93;99778.56;5016404;28;20022;-71
2022/09/08 05:35:36;;;;;;;10.18;7.63;;;;;;;15.41;70.35;99788.78;5033090;28;20128;-71
2022/09/08 05:38:02;;;;;;;18.27;8.20;;;;;;;15.66;70.29;99787.78;5034182;28;20490;-71
2022/09/08 05:40:27;;;;;;;11.75;7.25;;;;;;;15.73;69.76;99776.72;5032773;28;20072;-72
2022/09/08 05:42:53;;;;;;;13.63;6.82;;;;;;;15.84;69.12;99783.47;5033832;28;20045;-74
2022/09/08 05:45:18;;;;;;;12.07;7.60;;;;;;;16.02;68.26;99783.09;5034021;28;20029;-75
2022/09/08 05:47:43;;;;;;;8.10;6.63;;;;;;;15.93;68.13;99776.84;5033832;28;20028;-75
2022/09/08 05:50:09;;;;;;;21.60;7.85;;;;;;;16.22;67.77;99774.72;5033841;28;20030;-75
2022/09/08 05:52:34;;;;;;;11.88;6.93;;;;;;;16.49;66.13;99769.31;5032733;28;20026;-78
2022/09/08 05:55:00;;;;;;;12.93;7.00;;;;;;;16.36;65.71;99775.06;5034578;28;20025;-77
2022/09/08 05:57:27;;;;;;;11.48;6.60;;;;;;;16.38;65.50;99781.16;5034340;28;20037;-77
2022/09/08 05:59:53;;;;;;;22.73;7.47;;;;;;;16.49;64.90;99777.78;5032874;28;20036;-76
2022/09/08 06:02:18;;;;;;;8.55;6.47;;;;;;;16.65;64.44;99777.72;5034230;28;20025;-74
2022/09/08 06:04:44;;;;;;;10.88;6.00;;;;;;;16.63;63.50;99775.28;5032336;28;20021;-74
2022/09/08 06:07:09;;;;;;;10.13;5.88;;;;;;;16.84;63.03;99788.25;5031024;28;20029;-73
2022/09/08 06:09:35;;;;;;;8.77;6.38;;;;;;;16.84;63.47;99785.41;5031976;28;20033;-72
2022/09/08 06:12:00;;;;;;;7.78;6.40;;;;;;;17.10;62.32;99783.97;5031743;28;20033;-73
2022/09/08 06:14:25;;;;;;;9.02;6.47;;;;;;;17.04;61.94;99785.47;5023922;28;20061;-71
2022/09/08 06:16:51;;;;;;;19.55;6.68;;;;;;;17.23;61.64;99782.63;5012354;28;20382;-72
2022/09/08 06:19:17;;;;;;;8.27;6.38;;;;;;;17.34;60.36;99776.34;5028607;28;20451;-73
2022/09/08 06:21:42;;;;;;;10.23;7.10;;;;;;;17.51;60.02;99775.91;5013329;28;20206;-77
2022/09/08 06:24:13;;;;;;;12.55;5.85;;;;;;;17.69;59.72;99781.06;5026262;28;20029;-80
2022/09/08 06:26:52;;;;;;;13.02;6.50;;;;;;;17.87;59.67;99786.25;5022454;28;20045;-73
2022/09/08 06:29:20;;;;;;;11.95;7.15;;;;;;;17.84;59.98;99787.78;5028509;28;20475;-75
2022/09/08 06:32:01;;;;;;;7.00;5.65;;;;;;;17.91;59.56;99787.91;5012150;28;20041;-74
2022/09/08 06:34:31;;;;;;;9.95;5.57;;;;;;;17.78;59.33;99777.97;5027173;28;20036;-75
2022/09/08 06:37:04;;;;;;;12.63;6.18;;;;;;;17.91;59.57;99793.56;5012822;28;20041;-75
2022/09/08 06:39:42;;;;;;;8.88;7.18;;;;;;;17.67;59.78;99781.44;5013180;28;20029;-75
2022/09/08 06:42:16;;;;;;;9.85;5.68;;;;;;;18.00;58.47;99779.19;5028138;28;20053;-75
2022/09/08 06:44:44;;;;;;;9.73;5.65;;;;;;;18.05;58.04;99775.25;5020333;28;20033;-75
2022/09/08 06:47:17;;;;;;;7.40;5.40;;;;;;;18.26;57.79;99773.94;5028761;28;20025;-77
2022/09/08 06:49:42;;;;;;;10.05;6.03;;;;;;;18.26;57.73;99780.44;5028289;28;20389;-78
2022/09/08 06:52:20;;;;;;;11.10;6.10;;;;;;;18.40;57.28;99779.03;5031643;28;20036;-78
2022/09/08 06:55:29;;;;;;;8.30;6.68;;;;;;;18.56;56.94;99791.00;5029683;28;20485;-73
2022/09/08 06:58:16;;;;;;;7.47;5.50;;;;;;;18.69;56.13;99790.75;4950972;29;20518;-75
2022/09/08 07:00:46;;;;;;;9.15;5.97;;;;;;;18.79;56.22;99782.44;5023162;28;20485;-78
2022/09/08 07:03:50;;;;;;;8.70;6.47;;;;;;;19.05;55.34;99786.44;5030233;28;20389;-74
2022/09/08 07:06:24;;;;;;;7.10;5.80;;;;;;;19.12;55.62;99776.38;5027722;28;20064;-80
2022/09/08 07:09:10;;;;;;;7.03;5.72;;;;;;;19.12;54.73;99785.72;5030691;28;20049;-77
2022/09/08 07:11:59;;;;;;;11.77;6.32;;;;;;;18.91;56.01;99778.53;5027804;28;20084;-75
2022/09/08 07:14:59;;;;;;;11.27;5.80;;;;;;;19.32;56.03;99789.19;5007430;28;20128;-75
2022/09/08 07:17:40;;;;;;;8.35;5.78;;;;;;;19.47;54.78;99783.66;5028783;28;20029;-77
2022/09/08 07:20:10;;;;;;;9.38;5.35;;;;;;;19.90;54.89;99789.78;5018551;28;20117;-76
2022/09/08 07:22:44;;;;;;;7.30;4.80;;;;;;;19.99;51.86;99785.84;5017459;28;20033;-77
2022/09/08 07:25:15;;;;;;;10.13;5.60;;;;;;;20.18;52.29;99794.09;5012527;28;20472;-74
2022/09/08 07:27:43;;;;;;;7.43;5.80;;;;;;;20.34;52.00;99804.41;5013473;28;20495;-74
2022/09/08 07:30:18;;;;;;;10.13;6.00;;;;;;;20.65;51.17;99795.69;5029381;28;20060;-75
2022/09/08 07:32:57;;;;;;;11.23;6.07;;;;;;;20.87;50.06;99793.78;5030650;28;20381;-75
2022/09/08 07:35:35;;;;;;;8.02;5.60;;;;;;;20.74;49.42;99793.28;5011753;28;20066;-75
2022/09/08 07:38:08;;;;;;;7.30;5.57;;;;;;;20.88;49.57;99793.41;5012684;28;20121;-74
2022/09/08 07:40:45;;;;;;;7.05;5.43;;;;;;;20.98;48.75;99788.16;5031076;28;20033;-74
2022/09/08 07:43:13;;;;;;;8.07;5.60;;;;;;;21.08;48.82;99793.06;5012276;28;20057;-75
2022/09/08 07:45:58;;;;;;;7.30;5.60;;;;;;;21.02;49.41;99786.97;5030132;28;20037;-77
2022/09/08 07:48:47;;;;;;;6.85;5.72;;;;;;;20.91;49.89;99797.47;5012111;28;20067;-75
2022/09/08 07:51:15;;;;;;;14.98;6.78;;;;;;;21.03;49.48;99790.63;5012905;28;20048;-78
2022/09/08 07:53:40;;;;;;;9.82;6.13;;;;;;;21.30;48.74;99790.31;5030968;28;20425;-77
2022/09/08 07:56:22;;;;;;;16.42;5.78;;;;;;;21.39;48.77;99795.63;5013124;28;20044;-78
2022/09/08 07:59:03;;;;;;;12.32;6.47;;;;;;;21.75;48.81;99790.06;5029496;28;20516;-77
2022/09/08 08:01:40;;;;;;;9.00;6.63;;;;;;;21.93;48.20;99798.63;5013604;28;20051;-78
2022/09/08 08:04:33;;;;;;;10.85;5.95;;;;;;;22.00;47.71;99792.13;5012170;28;20075;-78
2022/09/08 08:07:07;;;;;;;6.65;5.32;;;;;;;22.04;47.68;99787.25;5011891;28;20416;-77
2022/09/08 08:09:41;;;;;;;13.93;6.43;;;;;;;21.87;47.23;99792.50;5031104;28;20034;-77
2022/09/08 08:12:51;;;;;;;8.05;5.80;;;;;;;21.88;47.43;99793.34;5013363;28;20045;-74
2022/09/08 08:15:22;;;;;;;6.10;5.00;;;;;;;22.09;47.68;99792.53;5003779;28;20029;-78
2022/09/08 08:18:14;;;;;;;9.88;5.68;;;;;;;22.40;48.47;99787.25;5013327;28;20036;-78
2022/09/08 08:20:50;;;;;;;10.10;5.80;;;;;;;22.75;47.65;99786.81;5008226;28;20041;-77
2022/09/08 08:23:35;;;;;;;7.82;5.97;;;;;;;22.45;46.27;99786.00;5030455;28;20056;-76
2022/09/08 08:26:19;;;;;;;7.15;5.38;;;;;;;22.71;46.89;99786.81;5029583;28;20479;-76
2022/09/08 08:28:45;;;;;;;12.75;6.53;;;;;;;22.51;47.14;99772.19;5029231;28;20539;-76
2022/09/08 08:31:42;;;;;;;8.27;5.97;;;;;;;22.69;46.27;99775.00;5027170;28;20124;-76
2022/09/08 08:34:23;;;;;;;12.10;5.85;;;;;;;22.69;45.82;99775.81;5009928;28;20049;-76
2022/09/08 08:36:50;;;;;;;94.00;14.02;;;;;;;22.74;46.32;99776.59;5010017;28;20503;-77
2022/09/08 08:39:21;;;;;;;13.65;5.20;;;;;;;22.83;44.90;99777.81;5029728;28;20033;-78
2022/09/08 08:42:35;;;;;;;24.08;6.38;;;;;;;22.81;45.04;99774.56;5017498;28;20037;-78
2022/09/08 08:45:35;;;;;;;17.77;5.80;;;;;;;23.18;45.93;99771.56;5010280;28;20431;-76
2022/09/08 08:48:33;;;;;;;9.52;5.80;;;;;;;23.25;43.51;99763.78;5024053;28;20072;-76
2022/09/08 08:51:22;;;;;;;8.50;5.38;;;;;;;23.02;43.23;99755.72;5011790;28;20064;-75
2022/09/08 08:53:59;;;;;;;12.02;5.47;;;;;;;23.27;44.03;99754.81;5014741;28;20493;-75
2022/09/08 08:57:09;;;;;;;9.25;5.47;;;;;;;23.53;43.48;99742.03;5026680;28;20032;-74
2022/09/08 09:00:03;;;;;;;7.97;5.25;;;;;;;23.65;42.34;99740.75;5005516;28;20051;-77
2022/09/08 09:02:50;;;;;;;6.85;5.53;;;;;;;23.39;42.29;99740.09;5010880;28;20033;-75
2022/09/08 09:05:22;;;;;;;7.40;5.70;;;;;;;23.80;42.48;99737.78;5026432;28;20037;-75
2022/09/08 09:08:08;;;;;;;15.48;6.25;;;;;;;23.92;42.29;99728.72;5024262;28;20033;-75
2022/09/08 09:10:42;;;;;;;9.98;5.78;;;;;;;23.62;41.17;99735.06;5014905;28;20030;-76
2022/09/08 09:13:45;;;;;;;12.82;7.22;;;;;;;23.46;42.29;99733.50;5009185;28;20060;-75
2022/09/08 09:16:32;;;;;;;11.98;7.68;;;;;;;23.64;42.17;99726.88;5033388;28;20029;-78
2022/09/08 09:19:03;;;;;;;7.85;6.13;;;;;;;23.86;42.09;99716.09;5034457;28;20040;-75
2022/09/08 09:21:59;;;;;;;9.05;6.80;;;;;;;23.98;41.62;99729.88;5024886;28;20051;-75
2022/09/08 09:25:02;;;;;;;15.38;7.03;;;;;;;23.76;41.61;99714.97;5016527;28;20036;-76
2022/09/08 09:27:45;;;;;;;8.52;6.53;;;;;;;24.22;42.83;99712.94;5015938;28;20225;-74
2022/09/08 09:31:00;;;;;;;10.45;5.32;;;;;;;24.52;41.62;99708.56;5029051;28;20017;-74
2022/09/08 09:33:47;;;;;;;9.98;5.32;;;;;;;24.68;41.41;99705.13;4975800;28;20377;-75
2022/09/08 09:36:44;;;;;;;9.25;6.25;;;;;;;24.61;41.60;99707.22;5015247;28;20044;-74
2022/09/08 09:39:29;;;;;;;9.43;5.43;;;;;;;24.62;40.60;99712.53;5014648;28;20043;-74
2022/09/08 09:42:03;;;;;;;7.10;5.75;;;;;;;24.60;41.82;99709.28;5029038;28;20527;-73
2022/09/08 09:44:38;;;;;;;8.60;6.35;;;;;;;25.05;41.05;99708.34;5011883;28;20509;-73
2022/09/08 09:47:30;;;;;;;37.63;18.48;;;;;;;25.35;39.80;99701.00;5027997;28;20069;-76
2022/09/08 09:50:25;;;;;;;14.90;7.63;;;;;;;25.55;38.65;99703.16;5013669;28;20036;-75
2022/09/08 09:53:16;;;;;;;6.68;5.35;;;;;;;25.23;37.94;99695.88;5010564;28;20041;-77
2022/09/08 09:56:04;;;;;;;7.82;4.88;;;;;;;24.19;39.81;99695.84;5031110;28;20018;-77
2022/09/08 09:58:53;;;;;;;8.30;5.70;;;;;;;24.53;39.38;99695.06;5002208;28;20036;-79
2022/09/08 10:01:43;;;;;;;9.57;4.78;;;;;;;25.01;39.18;99683.91;5030235;28;20032;-79
2022/09/08 10:04:46;;;;;;;5.28;4.75;;;;;;;25.42;38.34;99690.66;5030993;28;20496;-79
2022/09/08 10:07:23;;;;;;;8.52;5.95;;;;;;;25.46;38.81;99692.25;5015180;28;20072;-80
2022/09/08 10:09:53;;;;;;;10.82;5.65;;;;;;;25.50;39.32;99677.91;5014139;28;20034;-81
2022/09/08 10:12:37;;;;;;;12.07;8.60;;;;;;;25.55;39.29;99680.25;5010401;28;20045;-79
2022/09/08 10:15:02;;;;;;;9.25;5.20;;;;;;;25.70;39.05;99677.16;5025324;28;20044;-75
2022/09/08 10:18:05;;;;;;;12.80;6.40;;;;;;;25.70;38.01;99674.28;5022074;28;20346;-79
2022/09/08 10:20:52;;;;;;;10.77;5.45;;;;;;;25.85;37.97;99664.25;5031086;28;20063;-77
2022/09/08 10:23:54;;;;;;;11.95;4.97;;;;;;;25.79;37.88;99660.25;5030058;28;20427;-77
2022/09/08 10:26:51;;;;;;;6.47;5.60;;;;;;;26.16;38.05;99658.34;5011177;28;20026;-77
2022/09/08 10:29:54;;;;;;;13.65;5.85;;;;;;;26.05;37.58;99649.13;5025606;28;20025;-77
2022/09/08 10:32:53;;;;;;;12.00;5.18;;;;;;;25.95;38.45;99647.31;5009605;28;20056;-77
2022/09/08 10:35:37;;;;;;;10.60;6.18;;;;;;;26.16;37.60;99640.34;5026683;28;20514;-77
2022/09/08 10:38:31;;;;;;;7.68;5.68;;;;;;;25.98;38.63;99640.69;5013202;28;20045;-76
2022/09/08 10:41:16;;;;;;;15.43;5.55;;;;;;;26.27;37.13;99641.00;5012787;28;20036;-77
2022/09/08 10:44:20;;;;;;;9.50;5.45;;;;;;;26.69;37.30;99631.94;5029351;28;20485;-75
2022/09/08 10:47:10;;;;;;;7.95;5.30;;;;;;;26.72;37.03;99631.06;5028772;28;20076;-77
2022/09/08 10:50:06;;;;;;;7.72;4.88;;;;;;;26.79;37.21;99615.75;5013427;28;20029;-77
2022/09/08 10:53:06;;;;;;;6.53;4.75;;;;;;;26.84;36.20;99611.53;5023406;28;20029;-78
2022/09/08 10:55:57;;;;;;;11.40;5.78;;;;;;;26.81;35.54;99601.75;5012494;28;20038;-75
2022/09/08 10:59:00;;;;;;;10.50;5.28;;;;;;;26.96;36.13;99590.81;5025993;28;20128;-77
2022/09/08 11:01:56;;;;;;;10.80;5.38;;;;;;;27.22;35.79;99585.25;5025745;28;20032;-77
2022/09/08 11:04:42;;;;;;;7.63;4.80;;;;;;;27.27;35.07;99596.22;5030247;28;20120;-78
2022/09/08 11:07:29;;;;;;;16.42;5.45;;;;;;;27.00;35.48;99582.91;5020367;28;20425;-78
2022/09/08 11:10:07;;;;;;;10.45;5.57;;;;;;;27.01;36.20;99583.72;5030754;28;20570;-77
2022/09/08 11:12:41;;;;;;;5.90;5.13;;;;;;;27.33;35.78;99571.44;5008683;28;20033;-75
2022/09/08 11:15:34;;;;;;;6.80;5.38;;;;;;;27.34;35.40;99572.28;5027059;28;20032;-78
2022/09/08 11:18:37;;;;;;;11.27;4.95;;;;;;;27.41;34.52;99566.34;5026231;28;20098;-77
2022/09/08 11:21:08;;;;;;;11.38;4.97;;;;;;;27.61;34.71;99569.13;5011909;28;20036;-76
2022/09/08 11:24:04;;;;;;;5.68;4.40;;;;;;;27.82;34.32;99566.16;5022854;28;20030;-77
2022/09/08 11:27:02;;;;;;;8.85;4.80;;;;;;;27.60;33.35;99561.75;5004315;28;20037;-74
2022/09/08 11:29:38;;;;;;;8.82;5.40;;;;;;;27.53;33.84;99561.97;5014342;28;20071;-77
2022/09/08 11:32:34;;;;;;;6.28;4.80;;;;;;;27.54;33.76;99560.72;5012503;28;20040;-80
2022/09/08 11:35:35;;;;;;;10.30;4.75;;;;;;;27.59;32.20;99534.31;5026738;28;20042;-78
2022/09/08 11:38:26;;;;;;;6.90;4.30;;;;;;;27.40;32.61;99552.44;4989742;28;20033;-79
2022/09/08 11:41:34;;;;;;;7.13;5.30;;;;;;;27.65;32.37;99553.88;4984023;28;20126;-78
2022/09/08 11:44:30;;;;;;;16.38;5.22;;;;;;;28.15;32.34;99549.59;4994859;28;20077;-78
2022/09/08 11:47:26;;;;;;;6.32;4.22;;;;;;;28.30;31.90;99546.34;5008731;28;20045;-79
2022/09/08 11:50:10;;;;;;;5.38;4.00;;;;;;;28.38;31.24;99544.88;5005534;28;20023;-77
2022/09/08 11:53:07;;;;;;;10.63;5.93;;;;;;;28.45;32.03;99532.34;5001447;28;20080;-80
2022/09/08 11:55:54;;;;;;;13.55;6.53;;;;;;;28.49;32.28;99527.28;4949675;28;20049;-80
2022/09/08 11:58:38;;;;;;;9.32;5.57;;;;;;;28.40;31.61;99521.38;4999284;28;20025;-79
2022/09/08 12:01:18;;;;;;;10.40;5.50;;;;;;;28.51;31.91;99529.69;4999527;28;20026;-79
2022/09/08 12:04:14;;;;;;;8.48;4.70;;;;;;;28.61;32.33;99525.69;4994835;28;20041;-79
2022/09/08 12:07:07;;;;;;;7.28;4.85;;;;;;;28.88;31.99;99524.47;4998884;28;20509;-80
2022/09/08 12:09:55;;;;;;;8.80;5.25;;;;;;;28.92;31.49;99528.00;4996476;28;20030;-80